sensor_id;sensor_type;location;lat;lon;timestamp;P1;durP1;ratioP1;P2;durP2;ratioP2
12535;SDS011;6334;48.696;2.114;2022-09-25T00:01:05;4.43;;;3.03;;
12535;SDS011;6334;48.696;2.114;2022-09-25T00:03:35;5.47;;;3.10;;
12535;SDS011;6334;48.696;2.114;2022-09-25T00:06:07;3.70;;;2.73;;
12535;SDS011;6334;48.696;2.114;2022-09-25T00:08:39;5.63;;;3.17;;
12535;SDS011;6334;48.696;2.114;2022-09-25T00:11:14;5.37;;;3.17;;
12535;SDS011;6334;48.696;2.114;2022-09-25T00:13:43;3.57;;;2.70;;
12535;SDS011;6334;48.696;2.114;2022-09-25T00:16:15;4.97;;;3.10;;
12535;SDS011;6334;48.696;2.114;2022-09-25T00:18:44;3.97;;;2.60;;
12535;SDS011;6334;48.696;2.114;2022-09-25T00:21:33;3.80;;;2.70;;
12535;SDS011;6334;48.696;2.114;2022-09-25T00:24:04;4.93;;;3.13;;
12535;SDS011;6334;48.696;2.114;2022-09-25T00:26:35;5.87;;;3.10;;
12535;SDS011;6334;48.696;2.114;2022-09-25T00:29:04;5.77;;;3.03;;
12535;SDS011;6334;48.696;2.114;2022-09-25T00:31:34;3.93;;;2.83;;
12535;SDS011;6334;48.696;2.114;2022-09-25T00:34:05;6.73;;;3.40;;
12535;SDS011;6334;48.696;2.114;2022-09-25T00:36:35;5.63;;;2.90;;
12535;SDS011;6334;48.696;2.114;2022-09-25T00:39:06;4.87;;;3.10;;
12535;SDS011;6334;48.696;2.114;2022-09-25T00:41:36;6.37;;;3.33;;
12535;SDS011;6334;48.696;2.114;2022-09-25T00:44:54;4.13;;;2.83;;
12535;SDS011;6334;48.696;2.114;2022-09-25T00:46:54;3.10;;;2.60;;
12535;SDS011;6334;48.696;2.114;2022-09-25T00:49:25;10.40;;;3.17;;
12535;SDS011;6334;48.696;2.114;2022-09-25T00:51:56;7.40;;;2.90;;
12535;SDS011;6334;48.696;2.114;2022-09-25T00:54:35;4.10;;;2.80;;
12535;SDS011;6334;48.696;2.114;2022-09-25T00:57:03;5.67;;;3.50;;
12535;SDS011;6334;48.696;2.114;2022-09-25T00:59:34;4.73;;;3.13;;
12535;SDS011;6334;48.696;2.114;2022-09-25T01:02:03;5.07;;;3.77;;
12535;SDS011;6334;48.696;2.114;2022-09-25T01:04:34;4.07;;;2.87;;
12535;SDS011;6334;48.696;2.114;2022-09-25T01:07:04;5.57;;;3.10;;
12535;SDS011;6334;48.696;2.114;2022-09-25T01:09:34;4.90;;;3.20;;
12535;SDS011;6334;48.696;2.114;2022-09-25T01:12:05;7.43;;;3.57;;
12535;SDS011;6334;48.696;2.114;2022-09-25T01:14:35;6.07;;;3.17;;
12535;SDS011;6334;48.696;2.114;2022-09-25T01:17:07;4.50;;;2.90;;
12535;SDS011;6334;48.696;2.114;2022-09-25T01:30:50;4.03;;;2.70;;
12535;SDS011;6334;48.696;2.114;2022-09-25T01:33:22;4.93;;;2.90;;
12535;SDS011;6334;48.696;2.114;2022-09-25T01:35:56;5.03;;;3.40;;
12535;SDS011;6334;48.696;2.114;2022-09-25T01:38:25;6.20;;;3.40;;
12535;SDS011;6334;48.696;2.114;2022-09-25T01:40:59;4.17;;;3.37;;
12535;SDS011;6334;48.696;2.114;2022-09-25T01:43:34;7.87;;;3.97;;
12535;SDS011;6334;48.696;2.114;2022-09-25T01:46:11;6.17;;;3.00;;
12535;SDS011;6334;48.696;2.114;2022-09-25T01:48:45;3.90;;;3.23;;
12535;SDS011;6334;48.696;2.114;2022-09-25T01:53:51;5.33;;;3.37;;
12535;SDS011;6334;48.696;2.114;2022-09-25T01:56:27;4.17;;;3.07;;
12535;SDS011;6334;48.696;2.114;2022-09-25T02:01:41;3.50;;;3.03;;
12535;SDS011;6334;48.696;2.114;2022-09-25T02:04:15;7.40;;;3.43;;
12535;SDS011;6334;48.696;2.114;2022-09-25T02:06:45;6.57;;;3.40;;
12535;SDS011;6334;48.696;2.114;2022-09-25T02:09:21;5.23;;;3.20;;
12535;SDS011;6334;48.696;2.114;2022-09-25T02:11:49;4.73;;;3.23;;
12535;SDS011;6334;48.696;2.114;2022-09-25T02:14:20;5.43;;;3.40;;
12535;SDS011;6334;48.696;2.114;2022-09-25T02:16:51;5.40;;;3.20;;
12535;SDS011;6334;48.696;2.114;2022-09-25T02:19:20;5.57;;;3.73;;
12535;SDS011;6334;48.696;2.114;2022-09-25T02:22:12;4.17;;;3.20;;
12535;SDS011;6334;48.696;2.114;2022-09-25T02:25:02;4.60;;;3.60;;
12535;SDS011;6334;48.696;2.114;2022-09-25T02:27:29;4.20;;;3.37;;
12535;SDS011;6334;48.696;2.114;2022-09-25T02:29:59;4.10;;;3.10;;
12535;SDS011;6334;48.696;2.114;2022-09-25T02:32:30;4.27;;;3.60;;
12535;SDS011;6334;48.696;2.114;2022-09-25T02:35:00;4.77;;;3.00;;
12535;SDS011;6334;48.696;2.114;2022-09-25T02:37:31;3.93;;;3.37;;
12535;SDS011;6334;48.696;2.114;2022-09-25T02:40:01;3.57;;;3.27;;
12535;SDS011;6334;48.696;2.114;2022-09-25T02:42:41;5.13;;;3.50;;
12535;SDS011;6334;48.696;2.114;2022-09-25T02:45:27;4.70;;;3.13;;
12535;SDS011;6334;48.696;2.114;2022-09-25T02:48:02;5.97;;;3.17;;
12535;SDS011;6334;48.696;2.114;2022-09-25T02:50:50;5.77;;;3.60;;
12535;SDS011;6334;48.696;2.114;2022-09-25T02:53:34;7.63;;;3.67;;
12535;SDS011;6334;48.696;2.114;2022-09-25T02:56:18;4.73;;;3.47;;
12535;SDS011;6334;48.696;2.114;2022-09-25T02:58:48;6.63;;;3.70;;
12535;SDS011;6334;48.696;2.114;2022-09-25T03:01:19;4.77;;;3.60;;
12535;SDS011;6334;48.696;2.114;2022-09-25T03:03:50;6.63;;;4.07;;
12535;SDS011;6334;48.696;2.114;2022-09-25T03:06:20;4.50;;;3.17;;
12535;SDS011;6334;48.696;2.114;2022-09-25T03:08:50;6.27;;;3.60;;
12535;SDS011;6334;48.696;2.114;2022-09-25T03:11:21;6.90;;;3.33;;
12535;SDS011;6334;48.696;2.114;2022-09-25T03:13:54;3.83;;;3.40;;
12535;SDS011;6334;48.696;2.114;2022-09-25T03:16:31;7.47;;;3.70;;
12535;SDS011;6334;48.696;2.114;2022-09-25T03:19:04;4.87;;;3.43;;
12535;SDS011;6334;48.696;2.114;2022-09-25T03:21:35;6.27;;;3.33;;
12535;SDS011;6334;48.696;2.114;2022-09-25T03:24:05;4.33;;;3.17;;
12535;SDS011;6334;48.696;2.114;2022-09-25T03:26:36;8.07;;;3.50;;
12535;SDS011;6334;48.696;2.114;2022-09-25T03:29:06;5.80;;;3.67;;
12535;SDS011;6334;48.696;2.114;2022-09-25T03:31:37;4.57;;;3.57;;
12535;SDS011;6334;48.696;2.114;2022-09-25T03:34:13;3.83;;;3.30;;
12535;SDS011;6334;48.696;2.114;2022-09-25T03:36:43;9.47;;;3.83;;
12535;SDS011;6334;48.696;2.114;2022-09-25T03:39:14;4.40;;;3.50;;
12535;SDS011;6334;48.696;2.114;2022-09-25T03:41:44;6.37;;;3.50;;
12535;SDS011;6334;48.696;2.114;2022-09-25T03:44:14;7.30;;;4.43;;
12535;SDS011;6334;48.696;2.114;2022-09-25T03:46:45;5.00;;;3.80;;
12535;SDS011;6334;48.696;2.114;2022-09-25T03:49:15;4.83;;;3.67;;
12535;SDS011;6334;48.696;2.114;2022-09-25T03:51:46;5.47;;;3.70;;
12535;SDS011;6334;48.696;2.114;2022-09-25T03:54:16;5.67;;;3.43;;
12535;SDS011;6334;48.696;2.114;2022-09-25T03:56:47;6.40;;;4.07;;
12535;SDS011;6334;48.696;2.114;2022-09-25T03:59:17;7.57;;;3.70;;
12535;SDS011;6334;48.696;2.114;2022-09-25T04:01:48;8.47;;;4.60;;
12535;SDS011;6334;48.696;2.114;2022-09-25T04:04:18;5.70;;;3.60;;
12535;SDS011;6334;48.696;2.114;2022-09-25T04:06:49;4.20;;;3.80;;
12535;SDS011;6334;48.696;2.114;2022-09-25T04:09:19;6.70;;;3.80;;
12535;SDS011;6334;48.696;2.114;2022-09-25T04:11:49;6.70;;;4.10;;
12535;SDS011;6334;48.696;2.114;2022-09-25T04:14:20;7.13;;;4.40;;
12535;SDS011;6334;48.696;2.114;2022-09-25T04:16:50;7.87;;;4.40;;
12535;SDS011;6334;48.696;2.114;2022-09-25T04:19:21;6.80;;;4.03;;
12535;SDS011;6334;48.696;2.114;2022-09-25T04:21:51;9.20;;;4.43;;
12535;SDS011;6334;48.696;2.114;2022-09-25T04:24:22;9.70;;;4.87;;
12535;SDS011;6334;48.696;2.114;2022-09-25T04:27:10;6.57;;;4.33;;
12535;SDS011;6334;48.696;2.114;2022-09-25T04:29:41;6.07;;;4.10;;
12535;SDS011;6334;48.696;2.114;2022-09-25T04:32:12;5.17;;;4.33;;
12535;SDS011;6334;48.696;2.114;2022-09-25T04:35:00;5.80;;;4.00;;
12535;SDS011;6334;48.696;2.114;2022-09-25T04:37:30;7.90;;;4.40;;
12535;SDS011;6334;48.696;2.114;2022-09-25T04:40:01;6.40;;;4.57;;
12535;SDS011;6334;48.696;2.114;2022-09-25T04:42:31;5.80;;;4.20;;
12535;SDS011;6334;48.696;2.114;2022-09-25T04:45:02;6.90;;;4.60;;
12535;SDS011;6334;48.696;2.114;2022-09-25T04:47:32;7.23;;;4.53;;
12535;SDS011;6334;48.696;2.114;2022-09-25T04:50:03;8.03;;;4.40;;
12535;SDS011;6334;48.696;2.114;2022-09-25T04:52:33;6.03;;;4.43;;
12535;SDS011;6334;48.696;2.114;2022-09-25T04:55:04;7.13;;;4.30;;
12535;SDS011;6334;48.696;2.114;2022-09-25T04:57:34;7.03;;;4.40;;
12535;SDS011;6334;48.696;2.114;2022-09-25T05:00:05;8.30;;;4.10;;
12535;SDS011;6334;48.696;2.114;2022-09-25T05:02:35;5.67;;;3.97;;
12535;SDS011;6334;48.696;2.114;2022-09-25T05:05:06;4.87;;;3.83;;
12535;SDS011;6334;48.696;2.114;2022-09-25T05:07:37;4.63;;;3.70;;
12535;SDS011;6334;48.696;2.114;2022-09-25T05:10:07;5.83;;;4.07;;
12535;SDS011;6334;48.696;2.114;2022-09-25T05:12:37;7.43;;;4.20;;
12535;SDS011;6334;48.696;2.114;2022-09-25T05:15:08;6.00;;;4.33;;
12535;SDS011;6334;48.696;2.114;2022-09-25T05:17:38;6.87;;;4.23;;
12535;SDS011;6334;48.696;2.114;2022-09-25T05:20:09;6.00;;;4.13;;
12535;SDS011;6334;48.696;2.114;2022-09-25T05:22:39;7.07;;;4.53;;
12535;SDS011;6334;48.696;2.114;2022-09-25T05:25:10;7.13;;;4.30;;
12535;SDS011;6334;48.696;2.114;2022-09-25T05:27:40;7.40;;;5.30;;
12535;SDS011;6334;48.696;2.114;2022-09-25T05:30:11;7.67;;;5.10;;
12535;SDS011;6334;48.696;2.114;2022-09-25T05:32:47;7.27;;;5.37;;
12535;SDS011;6334;48.696;2.114;2022-09-25T05:35:18;10.63;;;5.93;;
12535;SDS011;6334;48.696;2.114;2022-09-25T05:37:50;9.17;;;6.13;;
12535;SDS011;6334;48.696;2.114;2022-09-25T05:40:21;10.33;;;6.40;;
12535;SDS011;6334;48.696;2.114;2022-09-25T05:42:51;9.83;;;5.80;;
12535;SDS011;6334;48.696;2.114;2022-09-25T05:45:21;9.23;;;6.53;;
12535;SDS011;6334;48.696;2.114;2022-09-25T05:48:02;11.93;;;5.97;;
12535;SDS011;6334;48.696;2.114;2022-09-25T05:50:31;10.63;;;6.63;;
12535;SDS011;6334;48.696;2.114;2022-09-25T05:53:03;10.43;;;6.10;;
12535;SDS011;6334;48.696;2.114;2022-09-25T05:55:32;10.33;;;6.23;;
12535;SDS011;6334;48.696;2.114;2022-09-25T05:58:03;9.17;;;5.97;;
12535;SDS011;6334;48.696;2.114;2022-09-25T06:00:33;8.53;;;5.33;;
12535;SDS011;6334;48.696;2.114;2022-09-25T06:03:03;9.70;;;6.37;;
12535;SDS011;6334;48.696;2.114;2022-09-25T06:05:34;10.93;;;6.30;;
12535;SDS011;6334;48.696;2.114;2022-09-25T06:08:07;8.33;;;5.70;;
12535;SDS011;6334;48.696;2.114;2022-09-25T06:10:38;10.40;;;5.53;;
12535;SDS011;6334;48.696;2.114;2022-09-25T06:13:11;10.23;;;5.90;;
12535;SDS011;6334;48.696;2.114;2022-09-25T06:15:41;7.70;;;5.20;;
12535;SDS011;6334;48.696;2.114;2022-09-25T06:18:12;9.87;;;5.80;;
12535;SDS011;6334;48.696;2.114;2022-09-25T06:20:42;9.63;;;5.53;;
12535;SDS011;6334;48.696;2.114;2022-09-25T06:23:13;9.27;;;5.47;;
12535;SDS011;6334;48.696;2.114;2022-09-25T06:25:43;9.93;;;5.77;;
12535;SDS011;6334;48.696;2.114;2022-09-25T06:28:14;11.50;;;5.80;;
12535;SDS011;6334;48.696;2.114;2022-09-25T06:30:44;8.73;;;5.73;;
12535;SDS011;6334;48.696;2.114;2022-09-25T06:33:14;11.80;;;5.73;;
12535;SDS011;6334;48.696;2.114;2022-09-25T06:35:46;10.23;;;5.23;;
12535;SDS011;6334;48.696;2.114;2022-09-25T06:38:15;9.30;;;5.40;;
12535;SDS011;6334;48.696;2.114;2022-09-25T06:40:47;4.63;;;3.60;;
12535;SDS011;6334;48.696;2.114;2022-09-25T06:43:17;13.02;;;7.10;;
12535;SDS011;6334;48.696;2.114;2022-09-25T06:45:48;9.27;;;5.20;;
12535;SDS011;6334;48.696;2.114;2022-09-25T06:48:18;7.30;;;5.33;;
12535;SDS011;6334;48.696;2.114;2022-09-25T06:50:52;9.17;;;5.67;;
12535;SDS011;6334;48.696;2.114;2022-09-25T06:53:22;12.10;;;5.57;;
12535;SDS011;6334;48.696;2.114;2022-09-25T06:55:54;8.57;;;5.00;;
12535;SDS011;6334;48.696;2.114;2022-09-25T06:58:24;9.97;;;5.33;;
12535;SDS011;6334;48.696;2.114;2022-09-25T07:00:55;9.23;;;4.93;;
12535;SDS011;6334;48.696;2.114;2022-09-25T07:03:25;8.40;;;4.97;;
12535;SDS011;6334;48.696;2.114;2022-09-25T07:06:11;12.40;;;5.00;;
12535;SDS011;6334;48.696;2.114;2022-09-25T07:08:41;8.67;;;4.97;;
12535;SDS011;6334;48.696;2.114;2022-09-25T07:11:12;6.93;;;4.83;;
12535;SDS011;6334;48.696;2.114;2022-09-25T07:13:42;9.57;;;4.93;;
12535;SDS011;6334;48.696;2.114;2022-09-25T07:16:13;9.03;;;4.63;;
12535;SDS011;6334;48.696;2.114;2022-09-25T07:18:43;10.60;;;4.90;;
12535;SDS011;6334;48.696;2.114;2022-09-25T07:21:14;8.10;;;4.80;;
12535;SDS011;6334;48.696;2.114;2022-09-25T07:23:45;6.73;;;4.47;;
12535;SDS011;6334;48.696;2.114;2022-09-25T07:26:15;8.43;;;4.83;;
12535;SDS011;6334;48.696;2.114;2022-09-25T07:28:51;7.30;;;4.60;;
12535;SDS011;6334;48.696;2.114;2022-09-25T07:31:18;6.40;;;4.47;;
12535;SDS011;6334;48.696;2.114;2022-09-25T07:33:48;5.70;;;4.50;;
12535;SDS011;6334;48.696;2.114;2022-09-25T07:36:19;8.23;;;4.73;;
12535;SDS011;6334;48.696;2.114;2022-09-25T07:38:49;7.13;;;4.30;;
12535;SDS011;6334;48.696;2.114;2022-09-25T07:41:20;10.03;;;4.93;;
12535;SDS011;6334;48.696;2.114;2022-09-25T07:43:51;8.93;;;4.57;;
12535;SDS011;6334;48.696;2.114;2022-09-25T07:46:20;6.97;;;4.67;;
12535;SDS011;6334;48.696;2.114;2022-09-25T07:48:51;8.33;;;4.20;;
12535;SDS011;6334;48.696;2.114;2022-09-25T07:51:22;9.83;;;4.20;;
12535;SDS011;6334;48.696;2.114;2022-09-25T07:53:52;8.77;;;4.57;;
12535;SDS011;6334;48.696;2.114;2022-09-25T07:56:22;8.00;;;4.07;;
12535;SDS011;6334;48.696;2.114;2022-09-25T07:58:53;8.93;;;4.30;;
12535;SDS011;6334;48.696;2.114;2022-09-25T08:01:23;7.03;;;4.03;;
12535;SDS011;6334;48.696;2.114;2022-09-25T08:03:54;6.00;;;3.67;;
12535;SDS011;6334;48.696;2.114;2022-09-25T08:06:24;5.50;;;3.50;;
12535;SDS011;6334;48.696;2.114;2022-09-25T08:08:55;5.23;;;3.37;;
12535;SDS011;6334;48.696;2.114;2022-09-25T08:11:25;5.37;;;3.33;;
12535;SDS011;6334;48.696;2.114;2022-09-25T08:13:56;5.77;;;3.00;;
12535;SDS011;6334;48.696;2.114;2022-09-25T08:16:26;5.57;;;3.43;;
12535;SDS011;6334;48.696;2.114;2022-09-25T08:18:57;5.53;;;3.53;;
12535;SDS011;6334;48.696;2.114;2022-09-25T08:21:27;6.10;;;3.27;;
12535;SDS011;6334;48.696;2.114;2022-09-25T08:23:57;2.87;;;2.57;;
12535;SDS011;6334;48.696;2.114;2022-09-25T08:26:28;4.97;;;2.90;;
12535;SDS011;6334;48.696;2.114;2022-09-25T08:28:58;4.47;;;2.73;;
12535;SDS011;6334;48.696;2.114;2022-09-25T08:31:29;4.70;;;3.07;;
12535;SDS011;6334;48.696;2.114;2022-09-25T08:34:01;7.70;;;2.83;;
12535;SDS011;6334;48.696;2.114;2022-09-25T08:36:31;5.03;;;2.77;;
12535;SDS011;6334;48.696;2.114;2022-09-25T08:39:02;2.57;;;2.20;;
12535;SDS011;6334;48.696;2.114;2022-09-25T08:41:54;4.33;;;2.47;;
12535;SDS011;6334;48.696;2.114;2022-09-25T08:44:19;5.23;;;2.33;;
12535;SDS011;6334;48.696;2.114;2022-09-25T08:46:51;4.23;;;2.07;;
12535;SDS011;6334;48.696;2.114;2022-09-25T08:50:08;5.07;;;2.20;;
12535;SDS011;6334;48.696;2.114;2022-09-25T08:52:40;6.57;;;2.17;;
12535;SDS011;6334;48.696;2.114;2022-09-25T08:57:52;5.27;;;1.93;;
12535;SDS011;6334;48.696;2.114;2022-09-25T09:00:22;3.40;;;1.87;;
12535;SDS011;6334;48.696;2.114;2022-09-25T09:02:53;3.67;;;1.80;;
12535;SDS011;6334;48.696;2.114;2022-09-25T09:05:42;2.87;;;1.80;;
12535;SDS011;6334;48.696;2.114;2022-09-25T09:08:12;2.33;;;1.67;;
12535;SDS011;6334;48.696;2.114;2022-09-25T09:10:42;4.40;;;2.40;;
12535;SDS011;6334;48.696;2.114;2022-09-25T09:13:15;4.23;;;2.30;;
12535;SDS011;6334;48.696;2.114;2022-09-25T09:15:58;4.73;;;1.73;;
12535;SDS011;6334;48.696;2.114;2022-09-25T09:18:27;6.53;;;2.53;;
12535;SDS011;6334;48.696;2.114;2022-09-25T09:21:12;4.13;;;1.60;;
12535;SDS011;6334;48.696;2.114;2022-09-25T09:23:57;5.00;;;1.87;;
12535;SDS011;6334;48.696;2.114;2022-09-25T09:40:43;6.67;;;1.80;;
12535;SDS011;6334;48.696;2.114;2022-09-25T09:46:20;4.70;;;1.70;;
12535;SDS011;6334;48.696;2.114;2022-09-25T09:49:02;4.90;;;1.93;;
12535;SDS011;6334;48.696;2.114;2022-09-25T09:51:45;2.50;;;2.13;;
12535;SDS011;6334;48.696;2.114;2022-09-25T09:54:28;3.77;;;1.70;;
12535;SDS011;6334;48.696;2.114;2022-09-25T09:56:59;1.20;;;1.10;;
12535;SDS011;6334;48.696;2.114;2022-09-25T09:59:32;2.87;;;1.73;;
12535;SDS011;6334;48.696;2.114;2022-09-25T10:04:33;3.13;;;1.50;;
12535;SDS011;6334;48.696;2.114;2022-09-25T10:07:08;3.27;;;1.43;;
12535;SDS011;6334;48.696;2.114;2022-09-25T10:09:37;4.07;;;1.80;;
12535;SDS011;6334;48.696;2.114;2022-09-25T10:12:27;1.60;;;1.50;;
12535;SDS011;6334;48.696;2.114;2022-09-25T10:14:56;3.40;;;1.60;;
12535;SDS011;6334;48.696;2.114;2022-09-25T10:17:26;2.83;;;1.30;;
12535;SDS011;6334;48.696;2.114;2022-09-25T10:19:58;4.37;;;1.57;;
12535;SDS011;6334;48.696;2.114;2022-09-25T10:22:28;2.97;;;2.17;;
12535;SDS011;6334;48.696;2.114;2022-09-25T10:24:58;1.93;;;1.47;;
12535;SDS011;6334;48.696;2.114;2022-09-25T10:27:29;1.77;;;1.30;;
12535;SDS011;6334;48.696;2.114;2022-09-25T10:32:56;2.83;;;1.57;;
12535;SDS011;6334;48.696;2.114;2022-09-25T10:35:27;2.13;;;1.30;;
12535;SDS011;6334;48.696;2.114;2022-09-25T10:37:59;3.90;;;1.80;;
12535;SDS011;6334;48.696;2.114;2022-09-25T10:40:31;4.93;;;1.50;;
12535;SDS011;6334;48.696;2.114;2022-09-25T10:43:02;1.37;;;1.00;;
12535;SDS011;6334;48.696;2.114;2022-09-25T10:45:34;3.90;;;1.60;;
12535;SDS011;6334;48.696;2.114;2022-09-25T10:51:11;4.00;;;2.08;;
12535;SDS011;6334;48.696;2.114;2022-09-25T10:53:45;1.73;;;1.10;;
12535;SDS011;6334;48.696;2.114;2022-09-25T10:56:16;1.77;;;1.47;;
12535;SDS011;6334;48.696;2.114;2022-09-25T10:58:50;1.70;;;1.07;;
12535;SDS011;6334;48.696;2.114;2022-09-25T11:01:24;1.93;;;1.40;;
12535;SDS011;6334;48.696;2.114;2022-09-25T11:03:54;2.70;;;1.47;;
12535;SDS011;6334;48.696;2.114;2022-09-25T11:06:29;4.43;;;1.13;;
12535;SDS011;6334;48.696;2.114;2022-09-25T11:09:07;1.30;;;1.30;;
12535;SDS011;6334;48.696;2.114;2022-09-25T11:11:36;2.63;;;1.20;;
12535;SDS011;6334;48.696;2.114;2022-09-25T11:14:15;4.27;;;1.50;;
12535;SDS011;6334;48.696;2.114;2022-09-25T11:16:45;2.73;;;1.50;;
12535;SDS011;6334;48.696;2.114;2022-09-25T11:19:29;3.13;;;1.90;;
12535;SDS011;6334;48.696;2.114;2022-09-25T11:22:02;2.20;;;1.30;;
12535;SDS011;6334;48.696;2.114;2022-09-25T11:24:53;3.03;;;1.57;;
12535;SDS011;6334;48.696;2.114;2022-09-25T11:27:33;2.70;;;1.23;;
12535;SDS011;6334;48.696;2.114;2022-09-25T11:30:17;1.57;;;1.07;;
12535;SDS011;6334;48.696;2.114;2022-09-25T11:35:51;1.60;;;1.10;;
12535;SDS011;6334;48.696;2.114;2022-09-25T11:38:13;4.20;;;1.93;;
12535;SDS011;6334;48.696;2.114;2022-09-25T11:40:59;2.60;;;1.70;;
12535;SDS011;6334;48.696;2.114;2022-09-25T11:43:42;2.65;;;1.92;;
12535;SDS011;6334;48.696;2.114;2022-09-25T11:46:15;2.83;;;1.40;;
12535;SDS011;6334;48.696;2.114;2022-09-25T11:56:52;2.00;;;1.23;;
12535;SDS011;6334;48.696;2.114;2022-09-25T12:02:03;1.33;;;1.23;;
12535;SDS011;6334;48.696;2.114;2022-09-25T12:04:59;1.43;;;1.00;;
12535;SDS011;6334;48.696;2.114;2022-09-25T12:07:16;2.07;;;1.20;;
12535;SDS011;6334;48.696;2.114;2022-09-25T12:17:51;3.60;;;1.23;;
12535;SDS011;6334;48.696;2.114;2022-09-25T12:20:46;1.10;;;0.80;;
12535;SDS011;6334;48.696;2.114;2022-09-25T12:33:52;1.20;;;1.00;;
12535;SDS011;6334;48.696;2.114;2022-09-25T12:36:30;5.17;;;1.43;;
12535;SDS011;6334;48.696;2.114;2022-09-25T12:39:20;2.83;;;0.80;;
12535;SDS011;6334;48.696;2.114;2022-09-25T12:42:13;2.33;;;0.90;;
12535;SDS011;6334;48.696;2.114;2022-09-25T12:47:14;3.73;;;1.43;;
12535;SDS011;6334;48.696;2.114;2022-09-25T12:49:44;4.57;;;2.00;;
12535;SDS011;6334;48.696;2.114;2022-09-25T12:52:17;2.00;;;1.60;;
12535;SDS011;6334;48.696;2.114;2022-09-25T12:54:55;3.00;;;1.60;;
12535;SDS011;6334;48.696;2.114;2022-09-25T12:57:26;2.77;;;1.23;;
12535;SDS011;6334;48.696;2.114;2022-09-25T13:00:03;3.20;;;1.23;;
12535;SDS011;6334;48.696;2.114;2022-09-25T13:02:34;4.83;;;1.47;;
12535;SDS011;6334;48.696;2.114;2022-09-25T13:05:18;1.73;;;0.83;;
12535;SDS011;6334;48.696;2.114;2022-09-25T13:11:18;3.77;;;1.37;;
12535;SDS011;6334;48.696;2.114;2022-09-25T13:13:01;3.63;;;1.00;;
12535;SDS011;6334;48.696;2.114;2022-09-25T13:15:32;2.40;;;0.90;;
12535;SDS011;6334;48.696;2.114;2022-09-25T13:18:03;1.97;;;1.50;;
12535;SDS011;6334;48.696;2.114;2022-09-25T13:23:04;1.93;;;1.20;;
12535;SDS011;6334;48.696;2.114;2022-09-25T13:25:41;4.50;;;2.10;;
12535;SDS011;6334;48.696;2.114;2022-09-25T13:28:16;4.57;;;2.43;;
12535;SDS011;6334;48.696;2.114;2022-09-25T13:30:55;2.97;;;1.40;;
12535;SDS011;6334;48.696;2.114;2022-09-25T13:33:17;2.87;;;1.07;;
12535;SDS011;6334;48.696;2.114;2022-09-25T13:35:44;4.03;;;1.43;;
12535;SDS011;6334;48.696;2.114;2022-09-25T13:38:15;1.67;;;1.10;;
12535;SDS011;6334;48.696;2.114;2022-09-25T13:41:12;2.63;;;1.13;;
12535;SDS011;6334;48.696;2.114;2022-09-25T13:43:39;4.10;;;1.50;;
12535;SDS011;6334;48.696;2.114;2022-09-25T13:48:46;0.97;;;0.93;;
12535;SDS011;6334;48.696;2.114;2022-09-25T13:56:27;1.90;;;1.10;;
12535;SDS011;6334;48.696;2.114;2022-09-25T13:59:03;0.87;;;0.80;;
12535;SDS011;6334;48.696;2.114;2022-09-25T14:01:39;1.63;;;1.00;;
12535;SDS011;6334;48.696;2.114;2022-09-25T14:04:09;6.67;;;1.40;;
12535;SDS011;6334;48.696;2.114;2022-09-25T14:06:45;1.37;;;1.27;;
12535;SDS011;6334;48.696;2.114;2022-09-25T14:09:16;1.37;;;1.27;;
12535;SDS011;6334;48.696;2.114;2022-09-25T14:11:50;3.70;;;1.07;;
12535;SDS011;6334;48.696;2.114;2022-09-25T14:14:31;3.17;;;0.93;;
12535;SDS011;6334;48.696;2.114;2022-09-25T14:17:10;1.73;;;0.90;;
12535;SDS011;6334;48.696;2.114;2022-09-25T14:19:38;2.23;;;1.60;;
12535;SDS011;6334;48.696;2.114;2022-09-25T14:22:11;4.60;;;1.20;;
12535;SDS011;6334;48.696;2.114;2022-09-25T14:24:41;7.30;;;1.70;;
12535;SDS011;6334;48.696;2.114;2022-09-25T14:27:22;4.57;;;1.90;;
12535;SDS011;6334;48.696;2.114;2022-09-25T14:29:50;2.40;;;0.80;;
12535;SDS011;6334;48.696;2.114;2022-09-25T14:32:38;1.43;;;1.33;;
12535;SDS011;6334;48.696;2.114;2022-09-25T14:41:43;2.07;;;1.30;;
12535;SDS011;6334;48.696;2.114;2022-09-25T14:46:52;3.10;;;1.77;;
12535;SDS011;6334;48.696;2.114;2022-09-25T14:49:35;1.03;;;1.00;;
12535;SDS011;6334;48.696;2.114;2022-09-25T14:52:05;2.83;;;1.30;;
12535;SDS011;6334;48.696;2.114;2022-09-25T14:54:37;1.03;;;0.83;;
12535;SDS011;6334;48.696;2.114;2022-09-25T14:57:05;3.73;;;1.30;;
12535;SDS011;6334;48.696;2.114;2022-09-25T14:59:40;1.10;;;0.60;;
12535;SDS011;6334;48.696;2.114;2022-09-25T15:02:19;2.40;;;1.07;;
12535;SDS011;6334;48.696;2.114;2022-09-25T15:04:50;1.20;;;0.97;;
12535;SDS011;6334;48.696;2.114;2022-09-25T15:07:23;1.40;;;1.03;;
12535;SDS011;6334;48.696;2.114;2022-09-25T15:09:53;0.77;;;0.77;;
12535;SDS011;6334;48.696;2.114;2022-09-25T15:17:28;1.23;;;0.80;;
12535;SDS011;6334;48.696;2.114;2022-09-25T15:19:59;3.00;;;0.73;;
12535;SDS011;6334;48.696;2.114;2022-09-25T15:22:33;1.17;;;1.00;;
12535;SDS011;6334;48.696;2.114;2022-09-25T15:25:02;0.60;;;0.60;;
12535;SDS011;6334;48.696;2.114;2022-09-25T15:27:32;3.47;;;1.73;;
12535;SDS011;6334;48.696;2.114;2022-09-25T15:30:03;1.57;;;0.80;;
12535;SDS011;6334;48.696;2.114;2022-09-25T15:32:36;1.63;;;0.90;;
12535;SDS011;6334;48.696;2.114;2022-09-25T15:35:10;1.90;;;1.07;;
12535;SDS011;6334;48.696;2.114;2022-09-25T15:37:37;1.33;;;0.50;;
12535;SDS011;6334;48.696;2.114;2022-09-25T15:40:14;1.90;;;1.27;;
12535;SDS011;6334;48.696;2.114;2022-09-25T15:42:42;1.13;;;0.90;;
12535;SDS011;6334;48.696;2.114;2022-09-25T15:48:09;0.83;;;0.60;;
12535;SDS011;6334;48.696;2.114;2022-09-25T15:50:49;1.27;;;1.13;;
12535;SDS011;6334;48.696;2.114;2022-09-25T15:53:21;1.50;;;0.73;;
12535;SDS011;6334;48.696;2.114;2022-09-25T15:56:04;1.50;;;0.90;;
12535;SDS011;6334;48.696;2.114;2022-09-25T15:58:33;0.90;;;0.70;;
12535;SDS011;6334;48.696;2.114;2022-09-25T16:01:03;1.57;;;0.90;;
12535;SDS011;6334;48.696;2.114;2022-09-25T16:03:52;1.23;;;1.03;;
12535;SDS011;6334;48.696;2.114;2022-09-25T16:06:41;1.30;;;1.00;;
12535;SDS011;6334;48.696;2.114;2022-09-25T16:09:21;1.60;;;1.03;;
12535;SDS011;6334;48.696;2.114;2022-09-25T16:11:50;1.23;;;1.07;;
12535;SDS011;6334;48.696;2.114;2022-09-25T16:14:25;1.23;;;0.80;;
12535;SDS011;6334;48.696;2.114;2022-09-25T16:16:51;1.63;;;0.87;;
12535;SDS011;6334;48.696;2.114;2022-09-25T16:21:55;1.90;;;1.63;;
12535;SDS011;6334;48.696;2.114;2022-09-25T16:24:25;3.90;;;1.00;;
12535;SDS011;6334;48.696;2.114;2022-09-25T16:27:00;3.13;;;0.73;;
12535;SDS011;6334;48.696;2.114;2022-09-25T16:29:30;2.53;;;1.33;;
12535;SDS011;6334;48.696;2.114;2022-09-25T16:32:01;1.60;;;1.20;;
12535;SDS011;6334;48.696;2.114;2022-09-25T16:34:39;1.87;;;1.33;;
12535;SDS011;6334;48.696;2.114;2022-09-25T16:37:05;3.60;;;1.90;;
12535;SDS011;6334;48.696;2.114;2022-09-25T16:39:36;1.77;;;1.67;;
12535;SDS011;6334;48.696;2.114;2022-09-25T16:44:50;3.33;;;1.90;;
12535;SDS011;6334;48.696;2.114;2022-09-25T16:47:20;2.40;;;1.43;;
12535;SDS011;6334;48.696;2.114;2022-09-25T16:49:51;1.30;;;1.20;;
12535;SDS011;6334;48.696;2.114;2022-09-25T16:52:21;1.17;;;1.17;;
12535;SDS011;6334;48.696;2.114;2022-09-25T16:54:52;2.00;;;1.70;;
12535;SDS011;6334;48.696;2.114;2022-09-25T16:57:23;2.00;;;1.80;;
12535;SDS011;6334;48.696;2.114;2022-09-25T16:59:52;2.63;;;1.67;;
12535;SDS011;6334;48.696;2.114;2022-09-25T17:02:29;2.77;;;1.57;;
12535;SDS011;6334;48.696;2.114;2022-09-25T17:05:03;1.53;;;1.40;;
12535;SDS011;6334;48.696;2.114;2022-09-25T17:07:30;1.17;;;1.17;;
12535;SDS011;6334;48.696;2.114;2022-09-25T17:10:00;2.57;;;1.30;;
12535;SDS011;6334;48.696;2.114;2022-09-25T17:12:30;1.33;;;1.23;;
12535;SDS011;6334;48.696;2.114;2022-09-25T17:15:01;3.67;;;1.20;;
12535;SDS011;6334;48.696;2.114;2022-09-25T17:17:32;1.53;;;1.17;;
12535;SDS011;6334;48.696;2.114;2022-09-25T17:20:03;1.40;;;0.80;;
12535;SDS011;6334;48.696;2.114;2022-09-25T17:22:33;1.23;;;1.10;;
12535;SDS011;6334;48.696;2.114;2022-09-25T17:25:10;1.83;;;1.00;;
12535;SDS011;6334;48.696;2.114;2022-09-25T17:27:34;1.10;;;1.03;;
12535;SDS011;6334;48.696;2.114;2022-09-25T17:30:07;1.27;;;1.17;;